createdAt,value
2018-02-05T00:01:56.905Z,1.10
2018-02-05T00:04:30.683Z,1.10
2018-02-05T00:07:04.492Z,1.10
2018-02-05T00:09:38.254Z,1.10
2018-02-05T00:12:12.220Z,1.10
2018-02-05T00:14:46.751Z,1.10
2018-02-05T00:17:20.421Z,1.10
2018-02-05T00:19:54.263Z,1.10
2018-02-05T00:22:28.008Z,1.10
2018-02-05T00:25:02.232Z,1.20
2018-02-05T00:27:36.775Z,1.20
2018-02-05T00:30:10.476Z,1.20
2018-02-05T00:32:44.206Z,1.30
2018-02-05T00:35:18.772Z,1.30
2018-02-05T00:37:52.540Z,1.20
2018-02-05T00:40:26.367Z,1.30
2018-02-05T00:43:00.147Z,1.30
2018-02-05T00:45:34.000Z,1.30
2018-02-05T00:48:08.706Z,1.30
2018-02-05T00:50:42.431Z,1.40
2018-02-05T00:53:16.214Z,1.40
2018-02-05T00:55:50.115Z,1.40
2018-02-05T00:58:23.913Z,1.40
2018-02-05T01:00:57.764Z,1.40
2018-02-05T01:03:31.583Z,1.40
2018-02-05T01:06:05.488Z,1.50
2018-02-05T01:08:39.282Z,1.40
2018-02-05T01:11:13.060Z,1.40
2018-02-05T01:13:48.738Z,1.40
2018-02-05T01:16:22.512Z,1.40
2018-02-05T01:18:56.884Z,1.40
2018-02-05T01:21:30.614Z,1.40
2018-02-05T01:24:04.449Z,1.40
2018-02-05T01:26:38.507Z,1.40
2018-02-05T01:29:13.063Z,1.40
2018-02-05T01:31:46.843Z,1.40
2018-02-05T01:34:21.382Z,1.40
2018-02-05T01:36:55.190Z,1.40
2018-02-05T01:39:29.015Z,1.40
2018-02-05T01:42:02.844Z,1.50
2018-02-05T01:44:37.344Z,1.40
2018-02-05T01:47:11.172Z,1.40
2018-02-05T01:49:44.943Z,1.40
2018-02-05T01:52:18.762Z,1.40
2018-02-05T01:54:52.573Z,1.40
2018-02-05T01:57:26.312Z,1.40
2018-02-05T02:00:00.423Z,1.40
2018-02-05T02:02:33.975Z,1.40
2018-02-05T02:05:08.717Z,1.40
2018-02-05T02:07:42.367Z,1.40
2018-02-05T02:10:16.229Z,1.40
2018-02-05T02:12:49.887Z,1.40
2018-02-05T02:15:23.543Z,1.40
2018-02-05T02:17:57.292Z,1.40
2018-02-05T02:20:31.647Z,1.40
2018-02-05T02:23:06.035Z,1.40
2018-02-05T02:25:39.908Z,1.40
2018-02-05T02:28:13.711Z,1.40
2018-02-05T02:30:47.524Z,1.40
2018-02-05T02:33:21.254Z,1.40
2018-02-05T02:35:55.841Z,1.40
2018-02-05T02:38:29.381Z,1.40
2018-02-05T02:41:03.130Z,1.50
2018-02-05T02:43:36.828Z,1.50
2018-02-05T02:46:10.593Z,1.40
2018-02-05T02:48:45.221Z,1.50
2018-02-05T02:51:19.628Z,1.50
2018-02-05T02:53:53.344Z,1.40
2018-02-05T02:56:27.219Z,1.50
2018-02-05T02:59:01.663Z,1.50
2018-02-05T03:01:35.572Z,1.50
2018-02-05T03:04:10.117Z,1.50
2018-02-05T03:06:44.550Z,1.50
2018-02-05T03:09:18.367Z,1.50
2018-02-05T03:11:52.968Z,1.40
2018-02-05T03:14:26.795Z,1.40
2018-02-05T03:17:00.568Z,1.40
2018-02-05T03:19:34.297Z,1.40
2018-02-05T03:22:08.103Z,1.40
2018-02-05T03:24:41.934Z,1.40
2018-02-05T03:27:16.408Z,1.40
2018-02-05T03:29:50.041Z,1.30
2018-02-05T03:32:24.287Z,1.30
2018-02-05T03:34:58.075Z,1.30
2018-02-05T03:37:32.647Z,1.30
2018-02-05T03:40:06.387Z,1.30
2018-02-05T03:42:40.986Z,1.30
2018-02-05T03:45:14.749Z,1.30
2018-02-05T03:47:48.553Z,1.30
2018-02-05T03:50:27.234Z,1.30
2018-02-05T03:53:00.932Z,1.30
2018-02-05T03:55:34.660Z,1.40
2018-02-05T03:58:08.458Z,1.30
2018-02-05T04:00:42.296Z,1.30
2018-02-05T04:03:17.315Z,1.40
2018-02-05T04:05:51.859Z,1.30
2018-02-05T04:08:26.202Z,1.40
2018-02-05T04:10:59.907Z,1.30
2018-02-05T04:13:34.446Z,1.30
2018-02-05T04:16:08.882Z,1.30
2018-02-05T04:18:42.580Z,1.30
2018-02-05T04:21:16.239Z,1.30
2018-02-05T04:23:50.021Z,1.30
2018-02-05T04:26:24.483Z,1.20
2018-02-05T04:28:58.250Z,1.20
2018-02-05T04:31:32.025Z,1.20
2018-02-05T04:34:05.776Z,1.20
2018-02-05T04:36:39.420Z,1.20
2018-02-05T04:39:13.245Z,1.20
2018-02-05T04:41:47.676Z,1.20
2018-02-05T04:44:21.345Z,1.20
2018-02-05T04:46:55.929Z,1.20
2018-02-05T04:49:31.298Z,1.10
2018-02-05T04:52:05.050Z,1.10
2018-02-05T04:54:38.923Z,1.10
2018-02-05T04:57:13.242Z,1.20
2018-02-05T04:59:46.880Z,1.10
2018-02-05T05:02:20.690Z,1.10
2018-02-05T05:04:54.453Z,1.20
2018-02-05T05:07:28.328Z,1.20
2018-02-05T05:10:02.125Z,1.10
2018-02-05T05:12:35.984Z,1.10
2018-02-05T05:15:09.747Z,1.10
2018-02-05T05:17:43.495Z,1.10
2018-02-05T05:20:17.223Z,1.10
2018-02-05T05:22:51.545Z,1.00
2018-02-05T05:25:25.864Z,1.00
2018-02-05T05:27:59.659Z,0.90
2018-02-05T05:30:33.443Z,0.80
2018-02-05T05:33:08.056Z,0.70
2018-02-05T05:35:42.622Z,0.40
2018-02-05T05:38:17.367Z,0.40
2018-02-05T05:40:51.328Z,0.30
2018-02-05T05:43:25.314Z,0.20
2018-02-05T05:46:00.036Z,0.10
2018-02-05T05:48:34.449Z,0.00
2018-02-05T05:51:12.545Z,-0.10
2018-02-05T05:53:46.222Z,-0.10
2018-02-05T05:56:20.729Z,-0.20
2018-02-05T05:58:54.383Z,-0.20
2018-02-05T06:01:28.222Z,-0.20
2018-02-05T06:04:02.631Z,-0.20
2018-02-05T06:06:36.811Z,-0.20
2018-02-05T06:09:10.396Z,-0.30
2018-02-05T06:11:44.815Z,-0.30
2018-02-05T06:14:18.414Z,-0.20
2018-02-05T06:16:52.038Z,-0.20
2018-02-05T06:19:26.568Z,-0.20
2018-02-05T06:22:03.951Z,-0.10
2018-02-05T06:24:37.631Z,-0.10
2018-02-05T06:27:11.391Z,-0.10
2018-02-05T06:29:45.126Z,-0.10
2018-02-05T06:32:18.913Z,-0.10
2018-02-05T06:34:52.614Z,-0.10
2018-02-05T06:37:26.408Z,-0.10
2018-02-05T06:40:00.094Z,-0.20
2018-02-05T06:42:34.592Z,-0.20
2018-02-05T06:45:08.226Z,-0.20
2018-02-05T06:47:42.050Z,-0.20
2018-02-05T06:50:40.018Z,-0.20
2018-02-05T06:53:25.635Z,-0.20
2018-02-05T06:56:25.207Z,-0.20
2018-02-05T06:58:59.772Z,-0.10
2018-02-05T07:01:33.588Z,0.00
2018-02-05T07:04:07.385Z,0.10
2018-02-05T07:06:41.019Z,0.10
2018-02-05T07:09:15.465Z,0.20
2018-02-05T07:11:49.190Z,0.20
2018-02-05T07:14:22.997Z,0.20
2018-02-05T07:16:57.665Z,0.30
2018-02-05T07:19:31.222Z,0.30
2018-02-05T07:22:05.741Z,0.40
2018-02-05T07:24:39.477Z,0.40
2018-02-05T07:27:13.104Z,0.50
2018-02-05T07:29:47.570Z,0.60
2018-02-05T07:32:21.451Z,0.60
2018-02-05T07:34:55.068Z,0.60
2018-02-05T07:37:28.773Z,0.70
2018-02-05T07:40:02.620Z,0.70
2018-02-05T07:42:37.107Z,0.70
2018-02-05T07:45:10.950Z,0.70
2018-02-05T07:47:46.088Z,0.80
2018-02-05T07:50:20.556Z,0.80
2018-02-05T07:52:54.236Z,0.80
2018-02-05T07:55:27.780Z,0.80
2018-02-05T07:58:02.728Z,0.80
2018-02-05T08:00:37.135Z,0.80
2018-02-05T08:03:10.817Z,0.90
2018-02-05T08:05:44.609Z,0.90
2018-02-05T08:08:18.263Z,0.90
2018-02-05T08:10:52.125Z,1.00
2018-02-05T08:13:25.820Z,1.00
2018-02-05T08:15:59.571Z,1.00
2018-02-05T08:18:33.404Z,1.00
2018-02-05T08:21:07.186Z,1.00
2018-02-05T08:23:40.991Z,1.10
2018-02-05T08:26:14.695Z,1.10
2018-02-05T08:28:48.273Z,1.00
2018-02-05T08:31:22.008Z,1.10
2018-02-05T08:33:55.792Z,1.20
2018-02-05T08:36:29.582Z,1.20
2018-02-05T08:39:04.103Z,1.20
2018-02-05T08:41:38.570Z,1.20
2018-02-05T08:44:13.177Z,1.30
2018-02-05T08:46:47.572Z,1.30
2018-02-05T08:49:21.495Z,1.30
2018-02-05T08:51:55.288Z,1.40
2018-02-05T08:54:29.155Z,1.30
2018-02-05T08:57:04.395Z,1.30
2018-02-05T08:59:38.152Z,1.30
2018-02-05T09:02:12.729Z,1.30
2018-02-05T09:04:47.186Z,1.20
2018-02-05T09:07:20.927Z,1.10
2018-02-05T09:09:54.704Z,1.10
2018-02-05T09:12:28.438Z,1.00
2018-02-05T09:15:03.036Z,1.10
2018-02-05T09:17:36.864Z,1.00
2018-02-05T09:20:11.031Z,1.10
2018-02-05T09:22:44.817Z,1.10
2018-02-05T09:25:18.588Z,1.10
2018-02-05T09:27:52.369Z,1.00
2018-02-05T09:30:26.884Z,1.10
2018-02-05T09:33:00.731Z,1.00
2018-02-05T09:35:34.518Z,1.10
2018-02-05T09:38:08.348Z,1.00
2018-02-05T09:40:42.104Z,1.10
2018-02-05T09:43:15.949Z,1.10
2018-02-05T09:45:49.892Z,1.10
2018-02-05T09:48:24.496Z,1.10
2018-02-05T09:50:58.200Z,1.10
2018-02-05T09:53:32.082Z,1.10
2018-02-05T09:56:06.573Z,1.00
2018-02-05T09:58:40.340Z,1.00
2018-02-05T10:01:14.188Z,1.00
2018-02-05T10:03:47.984Z,1.10
2018-02-05T10:06:21.739Z,1.10
2018-02-05T10:08:55.365Z,1.10
2018-02-05T10:11:29.184Z,1.00
2018-02-05T10:14:02.910Z,1.10
2018-02-05T10:16:37.424Z,1.20
2018-02-05T10:19:12.001Z,1.20
2018-02-05T10:21:45.606Z,1.20
2018-02-05T10:24:19.397Z,1.20
2018-02-05T10:26:53.099Z,1.30
2018-02-05T10:29:26.876Z,1.40
2018-02-05T10:32:00.571Z,1.40
2018-02-05T10:34:35.128Z,1.40
2018-02-05T10:37:08.897Z,1.40
2018-02-05T10:39:43.068Z,1.40
2018-02-05T10:42:16.763Z,1.50
2018-02-05T10:44:50.581Z,1.60
2018-02-05T10:47:25.094Z,1.70
2018-02-05T10:49:58.807Z,1.70
2018-02-05T10:52:32.617Z,1.70
2018-02-05T10:55:06.653Z,1.70
2018-02-05T10:57:40.375Z,1.70
2018-02-05T11:00:14.276Z,1.70
2018-02-05T11:02:48.223Z,1.70
2018-02-05T11:05:22.135Z,1.70
2018-02-05T11:07:55.804Z,1.70
2018-02-05T11:10:29.610Z,1.70
2018-02-05T11:13:03.928Z,1.60
2018-02-05T11:15:37.776Z,1.70
2018-02-05T11:18:11.496Z,1.80
2018-02-05T11:20:45.305Z,1.80
2018-02-05T11:23:19.768Z,1.60
2018-02-05T11:25:53.596Z,1.60
2018-02-05T11:28:28.132Z,1.60
2018-02-05T11:31:01.900Z,1.60
2018-02-05T11:33:35.677Z,1.50
2018-02-05T11:36:10.143Z,1.80
2018-02-05T11:38:44.157Z,1.80
2018-02-05T11:41:18.865Z,2.10
2018-02-05T11:43:53.531Z,2.20
2018-02-05T11:46:27.210Z,2.20
2018-02-05T11:49:00.968Z,2.30
2018-02-05T11:51:35.541Z,2.80
2018-02-05T11:54:10.221Z,2.80
2018-02-05T11:56:43.969Z,3.10
2018-02-05T11:59:18.017Z,3.00
2018-02-05T12:01:51.817Z,3.00
2018-02-05T12:04:25.526Z,2.90
2018-02-05T12:06:59.400Z,3.00
2018-02-05T12:09:33.275Z,3.10
2018-02-05T12:12:08.654Z,3.10
2018-02-05T12:14:42.471Z,3.10
2018-02-05T12:17:16.269Z,3.00
2018-02-05T12:19:50.678Z,3.00
2018-02-05T12:22:24.425Z,3.00
2018-02-05T12:24:59.016Z,2.90
2018-02-05T12:27:32.756Z,2.90
2018-02-05T12:30:06.365Z,2.80
2018-02-05T12:32:40.162Z,2.80
2018-02-05T12:35:14.651Z,2.90
2018-02-05T12:37:48.427Z,2.90
2018-02-05T12:40:22.991Z,3.10
2018-02-05T12:42:56.824Z,3.10
2018-02-05T12:45:31.331Z,3.60
2018-02-05T12:48:05.175Z,3.60
2018-02-05T12:50:39.541Z,3.80
2018-02-05T12:53:13.944Z,3.70
2018-02-05T12:55:47.888Z,3.70
2018-02-05T12:58:21.580Z,3.40
2018-02-05T13:00:57.798Z,3.10
2018-02-05T13:03:47.320Z,3.00
2018-02-05T13:06:26.822Z,2.80
2018-02-05T13:09:00.803Z,2.60
2018-02-05T13:11:34.603Z,2.50
2018-02-05T13:14:08.371Z,2.40
2018-02-05T13:16:42.640Z,2.40
2018-02-05T13:19:16.383Z,2.50
2018-02-05T13:21:50.149Z,2.60
2018-02-05T13:24:24.027Z,2.60
2018-02-05T13:26:57.852Z,2.70
2018-02-05T13:29:31.583Z,2.70
2018-02-05T13:32:07.504Z,2.90
2018-02-05T13:34:41.457Z,2.90
2018-02-05T13:37:15.152Z,2.90
2018-02-05T13:39:49.023Z,3.00
2018-02-05T13:42:22.727Z,3.20
2018-02-05T13:44:57.377Z,3.60
2018-02-05T13:47:31.155Z,3.90
2018-02-05T13:50:04.876Z,4.20
2018-02-05T13:52:38.536Z,4.40
2018-02-05T13:55:12.098Z,5.60
2018-02-05T13:57:46.110Z,7.10
2018-02-05T14:00:19.825Z,8.10
2018-02-05T14:02:53.616Z,8.40
2018-02-05T14:05:27.940Z,8.90
2018-02-05T14:08:03.316Z,7.10
2018-02-05T14:10:37.065Z,7.10
2018-02-05T14:13:10.846Z,5.90
2018-02-05T14:15:44.612Z,4.90
2018-02-05T14:18:18.422Z,4.40
2018-02-05T14:20:52.124Z,4.20
2018-02-05T14:23:25.889Z,4.80
2018-02-05T14:25:59.605Z,6.50
2018-02-05T14:28:33.323Z,8.20
2018-02-05T14:31:07.249Z,9.30
2018-02-05T14:33:40.876Z,10.10
2018-02-05T14:36:14.538Z,10.50
2018-02-05T14:38:48.224Z,10.60
2018-02-05T14:41:22.067Z,9.60
2018-02-05T14:43:55.816Z,8.00
2018-02-05T14:46:29.430Z,7.30
2018-02-05T14:49:03.173Z,6.30
2018-02-05T14:51:38.553Z,5.70
2018-02-05T14:54:13.363Z,5.20
2018-02-05T14:56:48.570Z,4.80
2018-02-05T14:59:22.174Z,4.30
2018-02-05T15:01:55.961Z,3.80
2018-02-05T15:04:30.519Z,3.20
2018-02-05T15:07:04.203Z,3.30
2018-02-05T15:09:37.946Z,3.10
2018-02-05T15:12:15.790Z,2.90
2018-02-05T15:14:49.669Z,2.80
2018-02-05T15:17:24.272Z,2.80
2018-02-05T15:20:00.154Z,2.90
2018-02-05T15:22:35.495Z,2.90
2018-02-05T15:25:10.150Z,2.90
2018-02-05T15:27:43.707Z,2.80
2018-02-05T15:30:17.521Z,2.80
2018-02-05T15:32:51.263Z,2.70
2018-02-05T15:35:25.027Z,2.70
2018-02-05T15:37:58.696Z,2.80
2018-02-05T15:40:33.232Z,2.80
2018-02-05T15:43:06.960Z,2.80
2018-02-05T15:45:40.711Z,2.70
2018-02-05T15:48:14.445Z,2.70
2018-02-05T15:50:48.203Z,2.70
2018-02-05T15:53:22.648Z,2.50
2018-02-05T15:55:56.496Z,2.60
2018-02-05T15:58:30.174Z,2.40
2018-02-05T16:01:03.820Z,2.30
2018-02-05T16:03:37.610Z,2.20
2018-02-05T16:06:11.225Z,2.30
2018-02-05T16:08:45.003Z,2.20
2018-02-05T16:11:18.572Z,2.20
2018-02-05T16:13:52.394Z,2.20
2018-02-05T16:16:26.222Z,2.10
2018-02-05T16:19:00.780Z,2.10
2018-02-05T16:21:34.547Z,2.10
2018-02-05T16:24:08.933Z,2.00
2018-02-05T16:26:43.380Z,1.90
2018-02-05T16:29:17.161Z,1.90
2018-02-05T16:31:51.756Z,1.80
2018-02-05T16:34:25.491Z,1.80
2018-02-05T16:36:59.126Z,1.80
2018-02-05T16:39:32.689Z,1.80
2018-02-05T16:42:06.538Z,1.80
2018-02-05T16:44:40.357Z,1.80
2018-02-05T16:47:14.138Z,1.70
2018-02-05T16:49:47.987Z,1.60
2018-02-05T16:52:21.779Z,1.40
2018-02-05T16:54:55.572Z,1.30
2018-02-05T16:57:29.287Z,1.20
2018-02-05T17:00:03.985Z,1.20
2018-02-05T17:02:37.796Z,1.30
2018-02-05T17:05:11.569Z,1.20
2018-02-05T17:07:45.349Z,1.20
2018-02-05T17:10:19.210Z,1.20
2018-02-05T17:12:52.964Z,1.20
2018-02-05T17:15:26.733Z,1.10
2018-02-05T17:18:01.353Z,1.10
2018-02-05T17:20:35.189Z,1.10
2018-02-05T17:23:09.001Z,1.10
2018-02-05T17:25:43.040Z,1.10
2018-02-05T17:28:18.424Z,1.10
2018-02-05T17:30:53.512Z,1.10
2018-02-05T17:33:27.337Z,1.00
2018-02-05T17:36:02.401Z,1.00
2018-02-05T17:38:36.813Z,1.00
2018-02-05T17:41:10.480Z,1.00
2018-02-05T17:43:44.300Z,1.00
2018-02-05T17:46:17.927Z,1.00
2018-02-05T17:48:52.705Z,1.00
2018-02-05T17:51:26.560Z,1.10
2018-02-05T17:54:00.275Z,1.00
2018-02-05T17:56:35.571Z,1.00
2018-02-05T17:59:09.216Z,1.10
2018-02-05T18:01:43.011Z,1.10
2018-02-05T18:04:16.847Z,1.10
2018-02-05T18:06:50.665Z,1.10
2018-02-05T18:09:24.487Z,1.10
2018-02-05T18:11:59.076Z,0.80
2018-02-05T18:14:32.845Z,0.80
2018-02-05T18:17:06.640Z,0.80
2018-02-05T18:19:40.306Z,0.70
2018-02-05T18:22:13.992Z,0.70
2018-02-05T18:24:47.728Z,0.60
2018-02-05T18:27:21.499Z,0.60
2018-02-05T18:29:56.224Z,0.50
2018-02-05T18:32:29.802Z,0.50
2018-02-05T18:35:03.569Z,0.50
2018-02-05T18:37:37.372Z,0.50
2018-02-05T18:40:11.290Z,0.50
2018-02-05T18:42:45.140Z,0.50
2018-02-05T18:45:18.816Z,0.50
2018-02-05T18:47:53.426Z,0.50
2018-02-05T18:50:27.288Z,0.60
2018-02-05T18:53:01.092Z,0.50
2018-02-05T18:55:34.900Z,0.50
2018-02-05T18:58:08.699Z,0.50
2018-02-05T19:00:51.301Z,0.50
2018-02-05T19:03:25.773Z,0.40
2018-02-05T19:05:59.448Z,0.40
2018-02-05T19:08:33.332Z,0.30
2018-02-05T19:11:07.753Z,0.30
2018-02-05T19:13:41.532Z,0.30
2018-02-05T19:16:15.290Z,0.20
2018-02-05T19:18:49.130Z,0.20
2018-02-05T19:21:22.980Z,0.20
2018-02-05T19:23:56.684Z,0.20
2018-02-05T19:26:30.520Z,0.10
2018-02-05T19:29:04.247Z,0.10
2018-02-05T19:31:37.999Z,0.00
2018-02-05T19:34:11.875Z,-0.10
2018-02-05T19:36:45.431Z,-0.20
2018-02-05T19:39:19.929Z,-0.40
2018-02-05T19:41:53.660Z,-0.40
2018-02-05T19:44:27.501Z,-0.40
2018-02-05T19:47:01.173Z,-0.50
2018-02-05T19:49:34.988Z,-0.60
2018-02-05T19:52:09.572Z,-0.70
2018-02-05T19:54:43.403Z,-0.70
2018-02-05T19:57:17.900Z,-0.80
2018-02-05T19:59:51.608Z,-0.80
2018-02-05T20:02:25.273Z,-0.80
2018-02-05T20:04:59.165Z,-0.80
2018-02-05T20:07:32.956Z,-0.80
2018-02-05T20:10:06.693Z,-0.80
2018-02-05T20:12:41.318Z,-0.70
2018-02-05T20:15:15.288Z,-0.60
2018-02-05T20:17:48.910Z,-0.60
2018-02-05T20:20:22.596Z,-0.50
2018-02-05T20:22:57.200Z,-0.50
2018-02-05T20:25:31.586Z,-0.50
2018-02-05T20:28:05.353Z,-0.50
2018-02-05T20:30:38.966Z,-0.50
2018-02-05T20:33:12.732Z,-0.50
2018-02-05T20:35:46.511Z,-0.60
2018-02-05T20:38:21.163Z,-0.60
2018-02-05T20:40:55.013Z,-0.60
2018-02-05T20:43:28.742Z,-0.70
2018-02-05T20:46:02.616Z,-0.70
2018-02-05T20:48:36.351Z,-0.70
2018-02-05T20:51:10.137Z,-0.80
2018-02-05T20:53:43.931Z,-0.80
2018-02-05T20:56:17.602Z,-0.80
2018-02-05T20:58:51.312Z,-0.90
2018-02-05T21:01:25.109Z,-0.90
2018-02-05T21:03:59.622Z,-0.80
2018-02-05T21:06:35.171Z,-0.80
2018-02-05T21:09:08.867Z,-0.80
2018-02-05T21:11:43.822Z,-0.80
2018-02-05T21:14:18.331Z,-0.80
2018-02-05T21:16:52.138Z,-0.80
2018-02-05T21:19:25.913Z,-0.80
2018-02-05T21:21:59.704Z,-0.80
2018-02-05T21:24:35.389Z,-0.90
2018-02-05T21:27:09.123Z,-0.90
2018-02-05T21:29:42.860Z,-1.00
2018-02-05T21:32:17.288Z,-1.00
2018-02-05T21:34:54.926Z,-1.00
2018-02-05T21:37:29.654Z,-1.10
2018-02-05T21:40:04.363Z,-1.10
2018-02-05T21:42:38.116Z,-1.10
2018-02-05T21:45:12.241Z,-1.10
2018-02-05T21:47:51.105Z,-1.10
2018-02-05T21:50:24.905Z,-1.20
2018-02-05T21:52:58.649Z,-1.20
2018-02-05T21:55:33.227Z,-1.20
2018-02-05T21:58:06.863Z,-1.30
2018-02-05T22:00:40.628Z,-1.20
2018-02-05T22:03:14.695Z,-1.30
2018-02-05T22:05:48.536Z,-1.30
2018-02-05T22:08:22.327Z,-1.40
2018-02-05T22:10:56.036Z,-1.40
2018-02-05T22:13:29.864Z,-1.50
2018-02-05T22:16:03.559Z,-1.50
2018-02-05T22:18:37.313Z,-1.50
2018-02-05T22:21:11.121Z,-1.50
2018-02-05T22:23:44.902Z,-1.60
2018-02-05T22:26:18.757Z,-1.60
2018-02-05T22:28:52.540Z,-1.60
2018-02-05T22:31:26.454Z,-1.60
2018-02-05T22:34:00.156Z,-1.60
2018-02-05T22:36:34.523Z,-1.70
2018-02-05T22:39:08.301Z,-1.70
2018-02-05T22:41:42.077Z,-1.70
2018-02-05T22:44:15.756Z,-1.70
2018-02-05T22:46:49.553Z,-1.70
2018-02-05T22:49:23.293Z,-1.70
2018-02-05T22:51:56.927Z,-1.70
2018-02-05T22:54:30.806Z,-1.80
2018-02-05T22:57:04.564Z,-1.80
2018-02-05T22:59:38.321Z,-1.80
2018-02-05T23:02:12.908Z,-1.90
2018-02-05T23:04:46.649Z,-1.90
2018-02-05T23:07:20.456Z,-1.90
2018-02-05T23:09:55.928Z,-2.10
2018-02-05T23:12:29.872Z,-2.10
2018-02-05T23:15:04.286Z,-2.10
2018-02-05T23:17:38.840Z,-2.20
2018-02-05T23:20:13.328Z,-2.30
2018-02-05T23:22:47.053Z,-2.30
2018-02-05T23:25:20.896Z,-2.30
2018-02-05T23:27:54.650Z,-2.40
2018-02-05T23:30:28.420Z,-2.40
2018-02-05T23:33:02.156Z,-2.40
2018-02-05T23:35:36.679Z,-2.50
2018-02-05T23:38:10.483Z,-2.50
2018-02-05T23:40:44.328Z,-2.50
2018-02-05T23:43:18.101Z,-2.50
2018-02-05T23:45:52.627Z,-2.60
2018-02-05T23:48:26.444Z,-2.60
2018-02-05T23:51:00.307Z,-2.60
2018-02-05T23:53:34.794Z,-2.60
2018-02-05T23:56:08.583Z,-2.60
2018-02-05T23:58:42.513Z,-2.60
